createdAt,value
2018-08-03T00:03:40.831Z,99.90
2018-08-03T00:06:09.609Z,99.90
2018-08-03T00:08:38.788Z,99.90
2018-08-03T00:11:08.091Z,99.90
2018-08-03T00:13:37.008Z,99.90
2018-08-03T00:16:05.845Z,99.90
2018-08-03T00:18:34.489Z,99.90
2018-08-03T00:21:03.089Z,99.90
2018-08-03T00:23:31.817Z,99.90
2018-08-03T00:26:00.664Z,99.90
2018-08-03T00:28:29.523Z,99.90
2018-08-03T00:30:58.141Z,99.90
2018-08-03T00:33:26.742Z,99.90
2018-08-03T00:35:55.640Z,99.90
2018-08-03T00:40:52.730Z,99.90
2018-08-03T00:45:49.557Z,99.90
2018-08-03T00:48:18.144Z,99.90
2018-08-03T00:50:47.585Z,99.90
2018-08-03T00:53:17.022Z,99.90
2018-08-03T00:55:46.129Z,99.90
2018-08-03T00:58:15.055Z,99.90
2018-08-03T01:00:44.032Z,99.90
2018-08-03T01:03:12.730Z,99.90
2018-08-03T01:05:41.318Z,99.90
2018-08-03T01:08:09.910Z,99.90
2018-08-03T01:10:38.771Z,99.90
2018-08-03T01:13:08.037Z,99.90
2018-08-03T01:15:37.345Z,99.90
2018-08-03T01:18:06.449Z,99.90
2018-08-03T01:20:35.182Z,99.90
2018-08-03T01:23:03.813Z,99.90
2018-08-03T01:25:32.472Z,99.90
2018-08-03T01:28:01.232Z,99.90
2018-08-03T01:30:29.820Z,99.90
2018-08-03T01:32:58.377Z,99.90
2018-08-03T01:35:26.981Z,99.90
2018-08-03T01:37:55.602Z,99.90
2018-08-03T01:40:25.396Z,99.90
2018-08-03T01:42:54.886Z,99.90
2018-08-03T01:45:24.358Z,99.90
2018-08-03T01:47:53.536Z,99.90
2018-08-03T01:50:22.341Z,99.90
2018-08-03T01:52:51.247Z,99.90
2018-08-03T01:55:20.300Z,99.90
2018-08-03T01:57:49.223Z,99.90
2018-08-03T02:00:17.950Z,99.90
2018-08-03T02:02:46.576Z,99.90
2018-08-03T02:05:15.164Z,99.90
2018-08-03T02:07:43.877Z,99.90
2018-08-03T02:10:13.624Z,99.90
2018-08-03T02:15:11.502Z,99.90
2018-08-03T02:17:40.319Z,99.90
2018-08-03T02:20:09.191Z,99.90
2018-08-03T02:22:37.768Z,99.90
2018-08-03T02:25:07.409Z,99.90
2018-08-03T02:27:35.975Z,99.90
2018-08-03T02:30:05.198Z,99.90
2018-08-03T02:32:34.092Z,99.90
2018-08-03T02:37:31.670Z,99.90
2018-08-03T02:40:00.941Z,99.90
2018-08-03T02:42:29.515Z,99.90
2018-08-03T02:44:58.308Z,99.90
2018-08-03T02:47:27.345Z,99.90
2018-08-03T02:49:56.741Z,99.90
2018-08-03T02:52:25.370Z,99.90
2018-08-03T02:54:53.983Z,99.90
2018-08-03T02:57:22.600Z,99.90
2018-08-03T02:59:51.213Z,99.90
2018-08-03T03:02:21.040Z,99.90
2018-08-03T03:04:50.611Z,99.90
2018-08-03T03:07:20.026Z,99.90
2018-08-03T03:12:18.419Z,99.90
2018-08-03T03:14:47.379Z,99.90
2018-08-03T03:17:16.245Z,99.90
2018-08-03T03:19:45.009Z,99.90
2018-08-03T03:22:13.633Z,99.90
2018-08-03T03:24:42.193Z,99.90
2018-08-03T03:27:10.826Z,99.90
2018-08-03T03:29:39.497Z,99.90
2018-08-03T03:34:37.849Z,99.90
2018-08-03T03:37:07.288Z,99.90
2018-08-03T03:39:35.899Z,99.90
2018-08-03T03:42:04.976Z,99.90
2018-08-03T03:44:33.697Z,99.90
2018-08-03T03:47:02.357Z,99.90
2018-08-03T03:49:30.922Z,99.90
2018-08-03T03:51:59.621Z,99.90
2018-08-03T03:54:28.512Z,99.90
2018-08-03T03:56:58.425Z,99.90
2018-08-03T03:59:27.400Z,99.90
2018-08-03T04:01:56.072Z,99.90
2018-08-03T04:04:25.026Z,99.90
2018-08-03T04:06:54.081Z,99.90
2018-08-03T04:09:23.291Z,99.90
2018-08-03T04:11:51.881Z,99.90
2018-08-03T04:14:20.465Z,99.90
2018-08-03T04:16:55.260Z,99.90
2018-08-03T04:19:23.824Z,99.90
2018-08-03T04:21:52.397Z,99.90
2018-08-03T04:24:20.960Z,99.90
2018-08-03T04:26:49.548Z,99.90
2018-08-03T04:29:18.137Z,99.90
2018-08-03T04:31:46.720Z,99.90
2018-08-03T04:34:15.320Z,99.90
2018-08-03T04:36:44.122Z,99.90
2018-08-03T04:39:12.754Z,99.90
2018-08-03T04:41:41.324Z,99.90
2018-08-03T04:44:12.020Z,99.90
2018-08-03T04:46:40.834Z,99.90
2018-08-03T04:49:09.409Z,99.90
2018-08-03T04:51:38.204Z,99.90
2018-08-03T04:54:06.829Z,99.90
2018-08-03T04:56:35.509Z,99.90
2018-08-03T04:59:04.533Z,99.90
2018-08-03T05:01:33.089Z,99.90
2018-08-03T05:04:01.689Z,99.90
2018-08-03T05:06:30.249Z,99.90
2018-08-03T05:08:59.009Z,99.90
2018-08-03T05:11:27.936Z,99.90
2018-08-03T05:13:56.496Z,99.90
2018-08-03T05:16:25.096Z,99.90
2018-08-03T05:18:53.725Z,99.90
2018-08-03T05:21:22.297Z,99.90
2018-08-03T05:23:50.867Z,99.90
2018-08-03T05:26:19.452Z,99.90
2018-08-03T05:28:48.053Z,99.90
2018-08-03T05:31:16.658Z,99.90
2018-08-03T05:33:45.276Z,99.90
2018-08-03T05:36:13.954Z,99.90
2018-08-03T05:38:42.509Z,99.90
2018-08-03T05:41:11.589Z,99.90
2018-08-03T05:43:40.271Z,99.90
2018-08-03T05:46:08.848Z,99.90
2018-08-03T05:48:37.453Z,99.90
2018-08-03T05:51:06.040Z,99.90
2018-08-03T05:53:34.593Z,99.90
2018-08-03T05:56:03.257Z,99.90
2018-08-03T05:58:31.840Z,99.90
2018-08-03T06:01:00.414Z,99.90
2018-08-03T06:03:29.608Z,99.90
2018-08-03T06:05:58.712Z,99.90
2018-08-03T06:08:27.684Z,99.90
2018-08-03T06:10:56.262Z,99.90
2018-08-03T06:13:24.837Z,99.90
2018-08-03T06:15:53.425Z,99.90
2018-08-03T06:18:22.557Z,99.90
2018-08-03T06:20:51.150Z,99.90
2018-08-03T06:23:19.767Z,99.90
2018-08-03T06:28:16.593Z,99.90
2018-08-03T06:30:45.177Z,99.90
2018-08-03T06:33:13.725Z,99.90
2018-08-03T06:35:42.309Z,99.90
2018-08-03T06:38:10.926Z,99.90
2018-08-03T06:40:39.525Z,99.90
2018-08-03T06:43:08.078Z,99.90
2018-08-03T06:45:36.645Z,99.90
2018-08-03T06:48:05.265Z,99.90
2018-08-03T06:50:33.820Z,99.90
2018-08-03T06:53:02.432Z,99.90
2018-08-03T06:55:31.008Z,99.90
2018-08-03T06:57:59.741Z,99.90
2018-08-03T07:00:28.341Z,99.90
2018-08-03T07:02:57.064Z,99.90
2018-08-03T07:05:25.534Z,99.90
2018-08-03T07:07:54.125Z,99.90
2018-08-03T07:10:22.690Z,99.90
2018-08-03T07:15:19.920Z,99.90
2018-08-03T07:17:48.608Z,99.90
2018-08-03T07:20:17.351Z,99.90
2018-08-03T07:22:45.808Z,99.90
2018-08-03T07:25:14.353Z,99.90
2018-08-03T07:27:42.929Z,99.90
2018-08-03T07:30:11.504Z,99.90
2018-08-03T07:32:40.081Z,99.90
2018-08-03T07:35:08.645Z,99.90
2018-08-03T07:37:37.197Z,99.90
2018-08-03T07:40:05.890Z,99.90
2018-08-03T07:42:34.425Z,99.90
2018-08-03T07:45:03.107Z,99.90
2018-08-03T07:47:31.632Z,99.90
2018-08-03T07:50:00.193Z,99.90
2018-08-03T07:52:28.800Z,99.90
2018-08-03T07:54:57.348Z,99.90
2018-08-03T07:57:25.917Z,99.90
2018-08-03T07:59:54.460Z,99.90
2018-08-03T08:02:23.121Z,99.90
2018-08-03T08:04:51.708Z,99.90
2018-08-03T08:07:20.284Z,99.90
2018-08-03T08:09:48.845Z,99.90
2018-08-03T08:12:17.421Z,99.90
2018-08-03T08:14:46.029Z,99.90
2018-08-03T08:17:14.576Z,99.90
2018-08-03T08:19:43.148Z,99.90
2018-08-03T08:22:11.760Z,99.90
2018-08-03T08:24:40.605Z,99.90
2018-08-03T08:27:09.225Z,99.90
2018-08-03T08:29:37.793Z,99.90
2018-08-03T08:32:06.405Z,99.90
2018-08-03T08:34:34.984Z,99.90
2018-08-03T08:37:03.669Z,99.90
2018-08-03T08:39:32.216Z,99.90
2018-08-03T08:42:00.780Z,99.90
2018-08-03T08:44:29.385Z,99.90
2018-08-03T08:46:57.945Z,99.90
2018-08-03T08:49:26.529Z,99.90
2018-08-03T08:51:55.142Z,99.90
2018-08-03T08:54:23.721Z,99.90
2018-08-03T08:56:52.348Z,99.90
2018-08-03T08:59:20.929Z,99.90
2018-08-03T09:01:49.509Z,99.90
2018-08-03T09:04:18.089Z,99.90
2018-08-03T09:06:46.762Z,99.90
2018-08-03T09:09:15.296Z,99.90
2018-08-03T09:11:43.884Z,99.90
2018-08-03T09:14:12.469Z,99.90
2018-08-03T09:16:41.044Z,99.90
2018-08-03T09:19:09.625Z,99.90
2018-08-03T09:21:38.237Z,99.90
2018-08-03T09:24:06.837Z,99.90
2018-08-03T09:26:35.443Z,99.90
2018-08-03T09:29:04.037Z,99.90
2018-08-03T09:31:32.626Z,99.90
2018-08-03T09:34:01.196Z,99.90
2018-08-03T09:36:29.793Z,99.90
2018-08-03T09:38:58.360Z,99.90
2018-08-03T09:41:26.945Z,99.90
2018-08-03T09:43:55.522Z,99.90
2018-08-03T09:46:24.133Z,99.90
2018-08-03T09:48:52.754Z,99.90
2018-08-03T09:53:49.545Z,99.90
2018-08-03T09:56:18.128Z,99.90
2018-08-03T09:58:46.713Z,99.90
2018-08-03T10:01:15.300Z,99.90
2018-08-03T10:03:43.885Z,99.90
2018-08-03T10:06:13.152Z,99.90
2018-08-03T10:08:41.713Z,99.90
2018-08-03T10:11:10.633Z,99.90
2018-08-03T10:13:39.249Z,99.90
2018-08-03T10:16:08.364Z,99.90
2018-08-03T10:18:36.956Z,99.90
2018-08-03T10:21:05.542Z,99.90
2018-08-03T10:23:34.104Z,99.00
2018-08-03T10:26:02.776Z,99.90
2018-08-03T10:28:31.330Z,99.90
2018-08-03T10:30:59.919Z,99.70
2018-08-03T10:33:28.485Z,99.80
2018-08-03T10:35:57.080Z,99.50
2018-08-03T10:38:25.641Z,99.80
2018-08-03T10:40:54.240Z,98.00
2018-08-03T10:43:22.885Z,99.90
2018-08-03T10:45:51.469Z,97.80
2018-08-03T10:48:20.082Z,97.80
2018-08-03T10:53:17.307Z,96.20
2018-08-03T10:55:45.916Z,94.10
2018-08-03T10:58:14.505Z,95.00
2018-08-03T11:00:43.158Z,95.60
2018-08-03T11:03:11.728Z,95.30
2018-08-03T11:05:40.334Z,91.70
2018-08-03T11:08:08.905Z,91.80
2018-08-03T11:10:37.509Z,92.30
2018-08-03T11:13:06.181Z,93.10
2018-08-03T11:15:34.757Z,91.60
2018-08-03T11:18:03.314Z,90.50
2018-08-03T11:20:31.893Z,91.20
2018-08-03T11:23:00.496Z,90.80
2018-08-03T11:25:29.125Z,88.10
2018-08-03T11:27:57.714Z,85.60
2018-08-03T11:30:26.287Z,90.20
2018-08-03T11:32:54.878Z,84.10
2018-08-03T11:35:23.517Z,85.00
2018-08-03T11:37:52.089Z,83.80
2018-08-03T11:40:21.389Z,86.30
2018-08-03T11:42:49.982Z,85.70
2018-08-03T11:45:18.549Z,86.90
2018-08-03T11:47:47.170Z,88.00
2018-08-03T11:50:15.742Z,83.00
2018-08-03T11:52:44.301Z,80.90
2018-08-03T11:55:15.746Z,86.00
2018-08-03T11:57:44.338Z,83.30
2018-08-03T12:00:13.204Z,83.20
2018-08-03T12:02:41.765Z,80.40
2018-08-03T12:05:10.425Z,76.00
2018-08-03T12:07:39.008Z,80.90
2018-08-03T12:10:07.633Z,80.80
2018-08-03T12:12:36.255Z,79.70
2018-08-03T12:15:04.911Z,75.70
2018-08-03T12:17:33.514Z,78.30
2018-08-03T12:20:02.085Z,78.70
2018-08-03T12:22:30.677Z,75.70
2018-08-03T12:24:59.227Z,72.20
2018-08-03T12:27:27.817Z,73.50
2018-08-03T12:29:56.452Z,70.70
2018-08-03T12:32:25.256Z,68.70
2018-08-03T12:34:53.840Z,69.80
2018-08-03T12:37:22.405Z,70.50
2018-08-03T12:39:51.002Z,71.90
2018-08-03T12:42:19.570Z,64.20
2018-08-03T12:44:48.180Z,61.40
2018-08-03T12:47:17.853Z,64.90
2018-08-03T12:49:46.433Z,62.20
2018-08-03T12:52:15.070Z,63.00
2018-08-03T12:54:43.631Z,67.60
2018-08-03T12:57:12.257Z,63.30
2018-08-03T12:59:40.938Z,66.00
2018-08-03T13:02:09.446Z,61.60
2018-08-03T13:04:38.014Z,61.10
2018-08-03T13:07:06.838Z,59.60
2018-08-03T13:09:35.413Z,62.00
2018-08-03T13:12:04.050Z,61.30
2018-08-03T13:14:32.609Z,58.60
2018-08-03T13:17:01.166Z,60.30
2018-08-03T13:19:32.169Z,61.50
2018-08-03T13:22:00.829Z,59.90
2018-08-03T13:24:29.480Z,60.10
2018-08-03T13:26:58.050Z,57.20
2018-08-03T13:29:26.743Z,60.20
2018-08-03T13:31:55.245Z,56.10
2018-08-03T13:34:23.819Z,58.50
2018-08-03T13:36:52.402Z,56.10
2018-08-03T13:39:21.017Z,59.60
2018-08-03T13:41:49.713Z,63.60
2018-08-03T13:46:46.538Z,58.50
2018-08-03T13:49:15.145Z,59.70
2018-08-03T13:51:43.751Z,57.90
2018-08-03T13:54:12.352Z,58.10
2018-08-03T13:56:40.958Z,58.50
2018-08-03T13:59:09.509Z,58.20
2018-08-03T14:01:50.013Z,55.40
2018-08-03T14:04:18.611Z,57.10
2018-08-03T14:06:47.200Z,55.40
2018-08-03T14:09:15.804Z,56.90
2018-08-03T14:11:44.365Z,57.30
2018-08-03T14:14:12.954Z,55.50
2018-08-03T14:16:41.545Z,55.70
2018-08-03T14:19:10.140Z,55.30
2018-08-03T14:21:38.697Z,57.90
2018-08-03T14:24:07.292Z,54.80
2018-08-03T14:26:35.917Z,55.40
2018-08-03T14:29:04.573Z,60.10
2018-08-03T14:31:33.268Z,57.60
2018-08-03T14:34:01.807Z,56.90
2018-08-03T14:38:58.634Z,58.60
2018-08-03T14:41:27.208Z,59.20
2018-08-03T14:43:55.780Z,57.20
2018-08-03T14:46:24.341Z,58.70
2018-08-03T14:48:52.957Z,59.60
2018-08-03T14:51:21.534Z,56.80
2018-08-03T14:53:50.125Z,56.80
2018-08-03T14:56:18.701Z,57.20
2018-08-03T14:58:47.268Z,55.90
2018-08-03T15:01:15.865Z,58.70
2018-08-03T15:03:44.472Z,55.70
2018-08-03T15:06:13.040Z,55.40
2018-08-03T15:08:41.593Z,56.00
2018-08-03T15:11:10.220Z,56.60
2018-08-03T15:13:38.842Z,55.80
2018-08-03T15:16:07.800Z,56.40
2018-08-03T15:18:36.372Z,56.10
2018-08-03T15:21:05.062Z,56.60
2018-08-03T15:23:33.676Z,52.80
2018-08-03T15:26:02.238Z,53.20
2018-08-03T15:28:31.895Z,54.80
2018-08-03T15:31:00.456Z,54.60
2018-08-03T15:33:29.037Z,58.10
2018-08-03T15:35:57.619Z,54.60
2018-08-03T15:38:26.213Z,56.30
2018-08-03T15:40:54.832Z,57.00
2018-08-03T15:43:23.401Z,56.20
2018-08-03T15:45:51.958Z,57.70
2018-08-03T15:48:20.532Z,57.30
2018-08-03T15:50:49.120Z,57.70
2018-08-03T15:53:18.423Z,54.80
2018-08-03T15:55:47.049Z,55.40
2018-08-03T15:58:15.622Z,57.00
2018-08-03T16:03:12.397Z,57.30
2018-08-03T16:08:09.176Z,57.30
2018-08-03T16:10:37.745Z,57.40
2018-08-03T16:13:06.788Z,56.80
2018-08-03T16:15:35.382Z,59.30
2018-08-03T16:18:03.986Z,57.10
2018-08-03T16:20:32.588Z,59.60
2018-08-03T16:23:01.136Z,58.70
2018-08-03T16:25:29.753Z,60.00
2018-08-03T16:27:58.357Z,57.90
2018-08-03T16:30:26.933Z,61.20
2018-08-03T16:32:55.517Z,58.70
2018-08-03T16:35:24.115Z,61.50
2018-08-03T16:37:52.699Z,62.30
2018-08-03T16:40:21.925Z,59.40
2018-08-03T16:42:50.524Z,60.50
2018-08-03T16:45:19.121Z,59.80
2018-08-03T16:47:47.760Z,62.30
2018-08-03T16:50:17.253Z,59.90
2018-08-03T16:52:45.925Z,62.20
2018-08-03T16:55:14.545Z,62.50
2018-08-03T16:57:43.116Z,61.90
2018-08-03T17:00:11.772Z,62.00
2018-08-03T17:02:40.341Z,63.50
2018-08-03T17:05:08.924Z,61.70
2018-08-03T17:07:38.476Z,63.40
2018-08-03T17:10:07.092Z,63.40
2018-08-03T17:12:35.677Z,61.20
2018-08-03T17:15:04.489Z,63.80
2018-08-03T17:17:33.097Z,67.10
2018-08-03T17:20:01.657Z,65.40
2018-08-03T17:22:30.233Z,63.90
2018-08-03T17:24:58.797Z,64.80
2018-08-03T17:27:27.380Z,64.20
2018-08-03T17:29:55.948Z,62.80
2018-08-03T17:32:25.277Z,63.70
2018-08-03T17:34:53.849Z,65.30
2018-08-03T17:37:22.425Z,66.50
2018-08-03T17:39:51.004Z,65.50
2018-08-03T17:42:19.576Z,65.00
2018-08-03T17:44:48.149Z,67.20
2018-08-03T17:47:16.757Z,65.70
2018-08-03T17:49:45.338Z,68.50
2018-08-03T17:52:13.957Z,69.50
2018-08-03T17:54:42.551Z,66.40
2018-08-03T17:57:11.157Z,65.80
2018-08-03T17:59:39.725Z,67.80
2018-08-03T18:02:08.508Z,69.50
2018-08-03T18:04:37.186Z,67.70
2018-08-03T18:07:05.796Z,68.00
2018-08-03T18:09:34.395Z,68.20
2018-08-03T18:12:02.933Z,69.20
2018-08-03T18:14:31.521Z,69.10
2018-08-03T18:17:00.077Z,69.30
2018-08-03T18:21:56.909Z,69.90
2018-08-03T18:24:25.492Z,70.00
2018-08-03T18:26:54.054Z,71.70
2018-08-03T18:29:23.175Z,68.80
2018-08-03T18:31:51.624Z,70.00
2018-08-03T18:34:20.193Z,69.80
2018-08-03T18:36:48.748Z,70.00
2018-08-03T18:39:17.313Z,72.30
2018-08-03T18:41:45.889Z,70.60
2018-08-03T18:44:14.461Z,70.60
2018-08-03T18:46:43.008Z,72.50
2018-08-03T18:49:11.638Z,71.00
2018-08-03T18:51:40.549Z,72.00
2018-08-03T18:54:09.160Z,71.40
2018-08-03T18:56:37.787Z,73.10
2018-08-03T18:59:06.625Z,75.00
2018-08-03T19:01:35.216Z,73.70
2018-08-03T19:04:03.853Z,75.40
2018-08-03T19:06:32.486Z,74.00
2018-08-03T19:09:01.061Z,75.00
2018-08-03T19:11:29.990Z,75.70
2018-08-03T19:13:58.570Z,76.10
2018-08-03T19:16:27.158Z,75.40
2018-08-03T19:18:55.737Z,76.70
2018-08-03T19:21:24.373Z,77.50
2018-08-03T19:23:52.945Z,81.20
2018-08-03T19:26:21.549Z,78.50
2018-08-03T19:28:50.121Z,81.70
2018-08-03T19:31:18.668Z,79.00
2018-08-03T19:33:47.245Z,79.50
2018-08-03T19:36:15.807Z,82.80
2018-08-03T19:38:44.393Z,81.50
2018-08-03T19:41:13.029Z,82.50
2018-08-03T19:43:41.616Z,86.50
2018-08-03T19:46:10.156Z,83.90
2018-08-03T19:48:38.733Z,84.50
2018-08-03T19:51:07.455Z,86.70
2018-08-03T19:53:36.033Z,84.80
2018-08-03T19:56:04.705Z,85.40
2018-08-03T19:58:33.306Z,85.40
2018-08-03T20:01:01.887Z,86.80
2018-08-03T20:03:30.469Z,86.90
2018-08-03T20:05:59.245Z,85.90
2018-08-03T20:08:27.807Z,86.70
2018-08-03T20:10:56.395Z,89.50
2018-08-03T20:13:24.972Z,86.50
2018-08-03T20:15:53.537Z,90.40
2018-08-03T20:18:22.092Z,90.10
2018-08-03T20:20:50.664Z,90.80
2018-08-03T20:23:19.244Z,90.80
2018-08-03T20:25:47.830Z,91.80
2018-08-03T20:28:16.393Z,90.60
2018-08-03T20:30:44.993Z,90.20
2018-08-03T20:33:13.577Z,90.70
2018-08-03T20:35:42.160Z,90.20
2018-08-03T20:38:10.780Z,90.40
2018-08-03T20:40:39.400Z,90.30
2018-08-03T20:43:07.969Z,89.70
2018-08-03T20:45:36.617Z,89.20
2018-08-03T20:48:05.241Z,88.50
2018-08-03T20:50:34.464Z,89.70
2018-08-03T20:53:03.043Z,88.20
2018-08-03T20:55:31.675Z,90.20
2018-08-03T20:58:00.265Z,89.00
2018-08-03T21:00:28.868Z,87.40
2018-08-03T21:05:25.653Z,88.20
2018-08-03T21:07:54.225Z,88.90
2018-08-03T21:10:22.805Z,87.30
2018-08-03T21:12:51.385Z,88.60
2018-08-03T21:15:19.933Z,88.60
2018-08-03T21:20:16.733Z,88.50
2018-08-03T21:22:45.388Z,88.60
2018-08-03T21:25:13.941Z,89.00
2018-08-03T21:27:42.557Z,88.80
2018-08-03T21:30:11.716Z,90.00
2018-08-03T21:32:40.277Z,90.20
2018-08-03T21:35:08.874Z,90.10
2018-08-03T21:37:37.432Z,89.70
2018-08-03T21:40:06.120Z,90.50
2018-08-03T21:42:35.201Z,90.90
2018-08-03T21:45:04.341Z,90.80
2018-08-03T21:47:32.893Z,91.40
2018-08-03T21:50:01.470Z,91.40
2018-08-03T21:52:30.030Z,90.90
2018-08-03T21:54:58.708Z,92.20
2018-08-03T21:57:27.320Z,91.50
2018-08-03T21:59:55.965Z,92.10
2018-08-03T22:02:24.553Z,91.30
2018-08-03T22:04:53.145Z,91.30
2018-08-03T22:07:21.760Z,91.40
2018-08-03T22:09:52.321Z,92.30
2018-08-03T22:12:20.889Z,92.00
2018-08-03T22:14:49.502Z,91.40
2018-08-03T22:17:18.074Z,91.60
2018-08-03T22:19:46.645Z,91.40
2018-08-03T22:22:15.322Z,91.70
2018-08-03T22:24:43.895Z,91.80
2018-08-03T22:29:40.709Z,91.90
2018-08-03T22:32:09.393Z,91.90
2018-08-03T22:34:37.977Z,91.90
2018-08-03T22:39:34.882Z,92.40
2018-08-03T22:42:03.517Z,92.40
2018-08-03T22:44:32.092Z,92.40
2018-08-03T22:47:00.732Z,92.60
2018-08-03T22:49:29.294Z,93.20
2018-08-03T22:51:57.901Z,93.60
2018-08-03T22:54:26.530Z,93.30
2018-08-03T22:56:55.148Z,93.70
2018-08-03T22:59:23.754Z,93.60
2018-08-03T23:01:52.356Z,93.60
2018-08-03T23:04:20.988Z,94.00
2018-08-03T23:06:49.573Z,94.10
2018-08-03T23:09:18.180Z,94.00
2018-08-03T23:11:46.770Z,94.10
2018-08-03T23:14:15.353Z,94.80
2018-08-03T23:16:43.926Z,94.50
2018-08-03T23:19:12.508Z,94.60
2018-08-03T23:21:41.097Z,94.80
2018-08-03T23:24:09.677Z,94.80
2018-08-03T23:26:38.261Z,94.90
2018-08-03T23:29:06.866Z,95.20
2018-08-03T23:31:35.522Z,95.50
2018-08-03T23:34:04.122Z,95.40
2018-08-03T23:36:32.719Z,96.10
2018-08-03T23:39:01.285Z,96.00
2018-08-03T23:41:29.879Z,96.30
2018-08-03T23:43:58.457Z,96.40
2018-08-03T23:46:27.053Z,96.30
2018-08-03T23:48:55.638Z,96.30
2018-08-03T23:51:24.246Z,96.60
2018-08-03T23:53:52.841Z,96.40
2018-08-03T23:56:21.489Z,96.80
2018-08-03T23:58:50.361Z,96.80
